• Join FlightAware (Why Join?)
  • Login
  • US Flag 
04:20AM EDT


 

Airport Tracker/Info


-or-


 

Live Flight TrackerFlight Track Log ✈ UAL582 ✈ 05-May-2013 ✈ KORD - KSNA

Flight Track Log - Related Links

Times and Time Zones

All times are in EDT time to prevent confusion due to time zone crossing. See the UAL582 flight status page for this flight to view local times or setup timezone preferences in your user account.

Time Position Orientation Groundspeed Altitude Reporting Facility
EDT Latitude Longitude Course Direction KTS MPH feet Rate Location/Type
09:48PM 42.0000 -87.9500 304° West 165 190 2,000  Level Chicago TRACON
09:49PM 42.0333 -88.0167 304° West 221 254 3,500 1,740 Climbing Chicago TRACON
09:50PM 42.0358 -88.1442 272° West 271 312 6,500 2,520 Climbing Chicago Center
09:51PM 42.0036 -88.2669 251° West 292 336 9,900 2,100 Climbing Chicago Center
09:52PM 41.9700 -88.3775 248° West 319 367 10,900 1,260 Climbing Chicago Center
09:53PM 41.9303 -88.5139 249° West 384 442 12,500 1,740 Climbing Chicago Center
09:54PM 41.8978 -88.6589 253° West 406 467 14,500 1,740 Climbing Chicago Center
09:55PM 41.8886 -88.8139 266° West 420 483 16,100 1,620 Climbing Chicago Center
09:57PM 41.8778 -88.9767 265° West 439 505 17,900 1,620 Climbing Chicago Center
09:58PM 41.8639 -89.1372 263° West 439 505 19,500 1,560 Climbing Chicago Center
09:59PM 41.8497 -89.3386 265° West 454 522 21,100 1,320 Climbing Chicago Center
10:00PM 41.8375 -89.5081 265° West 460 529 22,300 1,140 Climbing Chicago Center
10:01PM 41.8194 -89.6803 264° West 468 539 23,500 1,020 Climbing Chicago Center
10:02PM 41.7961 -89.8447 259° West 476 548 24,400 840 Climbing Chicago Center
10:03PM 41.7706 -90.0200 259° West 481 554 25,300 900 Climbing Chicago Center
10:04PM 41.7433 -90.1989 259° West 490 564 26,300 1,260 Climbing Chicago Center
10:05PM 41.7094 -90.4150 258° West 496 571 27,900 1,380 Climbing Chicago Center
10:06PM 41.6836 -90.5900 259° West 486 559 29,200 1,260 Climbing Chicago Center
10:07PM 41.6539 -90.7717 258° West 475 547 30,600 1,200 Climbing Chicago Center
10:08PM 41.6272 -90.9406 258° West 469 540 31,700 1,020 Climbing Chicago Center
10:09PM 41.6014 -91.1083 258° West 465 535 32,700 960 Climbing Chicago Center
10:10PM 41.5747 -91.2744 258° West 461 531 33,700 900 Climbing Chicago Center
10:11PM 41.5475 -91.4411 258° West 462 532 34,600 600 Climbing Chicago Center
10:12PM 41.5217 -91.6008 258° West 449 517 35,000 120 Climbing Chicago Center
10:13PM 41.4819 -91.7528 251° West 439 505 34,900 -480 Descending Chicago Center
10:14PM 41.4417 -91.9092 251° West 447 514 34,100 -480 Descending Chicago Center
10:15PM 41.3906 -92.0997 250° West 456 525 34,000 -60 Descending Chicago Center
10:16PM 41.3489 -92.2542 250° West 450 518 34,000  Level Chicago Center
10:17PM 41.3042 -92.4200 250° West 450 518 34,000  Level Chicago Center
10:18PM 41.2622 -92.5739 250° West 449 517 34,000  Level Chicago Center
10:19PM 41.2289 -92.7006 251° West 453 521 34,000  Level Minneapolis Center
10:20PM 41.1861 -92.8550 250° West 453 521 34,000  Level Minneapolis Center
10:21PM 41.1344 -93.0394 250° West 450 518 34,000  Level Minneapolis Center
10:22PM 41.0925 -93.1922 250° West 449 517 34,000  Level Minneapolis Center
10:23PM 41.0506 -93.3422 250° West 443 510 34,000  Level Minneapolis Center
10:24PM 41.0075 -93.4964 250° West 449 517 34,000 60 Level Minneapolis Center
10:25PM 40.9628 -93.6500 249° West 453 521 34,200 360 Climbing Minneapolis Center
10:26PM 40.9203 -93.8022 250° West 450 518 34,800 540 Climbing Minneapolis Center
10:27PM 40.8761 -93.9553 249° West 450 518 35,400 540 Climbing Minneapolis Center
10:28PM 40.8214 -94.1394 249° West 452 520 36,000 240 Climbing Minneapolis Center
10:29PM 40.7769 -94.2925 249° West 452 520 36,000  Level Minneapolis Center
10:30PM 40.7325 -94.4444 249° West 450 518 36,000  Level Minneapolis Center
10:31PM 40.6817 -94.6147 249° West 447 514 36,000  Level Minneapolis Center
10:32PM 40.6367 -94.7672 249° West 445 512 36,000  Level Minneapolis Center
10:33PM 40.5936 -94.9164 249° West 440 506 36,000  Level Minneapolis Center
10:34PM 40.5389 -95.0989 249° West 443 510 36,000  Level Minneapolis Center
10:35PM 40.4939 -95.2489 249° West 441 507 36,000  Level Minneapolis Center
10:36PM 40.4486 -95.3978 248° West 439 505 36,000  Level Minneapolis Center
10:37PM 40.4042 -95.5467 249° West 438 504 36,000  Level Minneapolis Center
10:38PM 40.3572 -95.7003 248° West 444 511 36,000  Level Minneapolis Center
10:39PM 40.3108 -95.8497 248° West 444 511 36,000  Level Minneapolis Center
10:40PM 40.2644 -95.9992 248° West 444 511 36,000  Level Minneapolis Center
10:41PM 40.2183 -96.1503 248° West 444 511 36,000  Level Minneapolis Center
10:42PM 40.1875 -96.3067 256° West 446 513 36,000  Level Minneapolis Center
10:44PM 40.1672 -96.4683 261° West 448 516 36,000  Level Minneapolis Center
10:45PM 40.1481 -96.6275 261° West 446 513 36,000  Level Minneapolis Center
10:46PM 40.1278 -96.7856 261° West 443 510 36,000  Level Minneapolis Center
10:47PM 40.1072 -96.9406 260° West 438 504 36,000  Level Minneapolis Center
10:48PM 40.0878 -97.0914 260° West 424 488 36,000  Level Minneapolis Center
10:49PM 40.0683 -97.2442 261° West 425 489 36,000  Level Minneapolis Center
10:50PM 40.0425 -97.4300 260° West 436 502 36,000  Level Minneapolis Center
10:51PM 40.0228 -97.5872 261° West 438 504 36,000  Level Minneapolis Center
10:52PM 39.9994 -97.7450 259° West 440 506 36,000  Level Minneapolis Center
10:53PM 39.9792 -97.9011 260° West 438 504 36,000  Level Minneapolis Center
10:54PM 39.9569 -98.0547 259° West 434 499 36,000  Level Minneapolis Center
10:55PM 39.9361 -98.2067 260° West 429 494 36,000  Level Minneapolis Center
10:56PM 39.9139 -98.3578 259° West 427 491 36,000 -60 Level Minneapolis Center
10:57PM 39.8933 -98.5044 260° West 422 486 35,900  Descending Minneapolis Center
10:58PM 39.8731 -98.6500 260° West 417 480 36,000  Climbing Minneapolis Center
10:59PM 39.8519 -98.7950 259° West 412 474 36,000  Level Minneapolis Center
10:59PM 39.8342 -98.9089 259° West 408 470 36,000  Level Denver Center
11:01PM 39.8125 -99.0561 259° West 413 475 36,000  Level Denver Center
11:02PM 39.7906 -99.2056 259° West 419 482 36,000  Level Denver Center
11:03PM 39.7681 -99.3528 259° West 416 479 36,100  Climbing Denver Center
11:04PM 39.7458 -99.5014 259° West 417 480 36,000 -60 Descending Denver Center
11:05PM 39.7225 -99.6489 258° West 415 478 36,000  Level Denver Center
11:06PM 39.7003 -99.7975 259° West 417 480 36,000  Level Denver Center
11:07PM 39.6761 -99.9464 258° West 421 484 36,000  Level Denver Center
11:08PM 39.6500 -100.1111 258° West 419 482 36,000  Level Denver Center
11:09PM 39.6286 -100.2497 259° West 413 475 36,000  Level Denver Center
11:10PM 39.6019 -100.4139 258° West 414 476 36,000  Level Denver Center
11:11PM 39.5758 -100.5772 258° West 414 476 36,000  Level Denver Center
11:12PM 39.5489 -100.7381 258° West 409 471 36,000  Level Denver Center
11:13PM 39.5267 -100.8767 258° West 410 472 36,000  Level Denver Center
11:14PM 39.5033 -101.0172 258° West 415 478 36,000  Level Denver Center
11:15PM 39.4758 -101.1808 258° West 415 478 36,000  Level Denver Center
11:16PM 39.4519 -101.3217 258° West 418 481 36,000  Level Denver Center
11:17PM 39.4239 -101.4850 258° West 416 479 36,000  Level Denver Center
11:18PM 39.3994 -101.6242 257° West 414 476 36,000  Level Denver Center
11:19PM 39.3764 -101.7656 258° West 419 482 36,000  Level Denver Center
11:20PM 39.3528 -101.9278 259° West 414 476 36,000  Level Denver Center
11:21PM 39.3264 -102.0922 258° West 416 479 36,000  Level Denver Center
11:22PM 39.3019 -102.2519 259° West 409 471 36,000  Level Denver Center
11:23PM 39.2806 -102.3906 259° West 411 473 36,000  Level Denver Center
11:24PM 39.2544 -102.5542 258° West 416 479 36,000  Level Denver Center
11:25PM 39.2331 -102.6950 259° West 417 480 36,000  Level Denver Center
11:26PM 39.2111 -102.8356 259° West 417 480 36,100  Climbing Denver Center
11:27PM 39.1869 -102.9819 258° West 415 478 36,000 -60 Descending Denver Center
11:28PM 39.1631 -103.1275 258° West 412 474 36,000  Level Denver Center
11:30PM 39.1394 -103.2714 258° West 408 470 36,000  Level Denver Center
11:31PM 39.1153 -103.4161 258° West 409 471 36,000  Level Denver Center
11:32PM 39.0919 -103.5625 258° West 412 474 36,000  Level Denver Center
11:33PM 39.0669 -103.7075 258° West 413 475 36,100  Climbing Denver Center
11:34PM 39.0383 -103.8758 258° West 409 471 36,000 -60 Descending Denver Center
11:35PM 39.0142 -104.0197 258° West 407 468 36,000  Level Denver Center
11:36PM 38.9892 -104.1642 257° West 409 471 36,000  Level Denver Center
11:37PM 38.9639 -104.3083 257° West 409 471 36,000  Level Denver Center
11:38PM 38.9389 -104.4558 258° West 415 478 36,000  Level Denver Center
11:39PM 38.9106 -104.6050 256° West 424 488 36,000  Level Denver Center
11:40PM 38.8847 -104.7517 257° West 418 481 36,000  Level Denver Center
11:41PM 38.8589 -104.9003 257° West 420 483 36,000  Level Denver Center
11:42PM 38.8319 -105.0486 257° West 421 484 36,000  Level Denver Center
11:43PM 38.8047 -105.1986 257° West 425 489 36,000  Level Denver Center
11:44PM 38.7778 -105.3500 257° West 430 495 36,000  Level Denver Center
11:45PM 38.7492 -105.4992 256° West 427 491 36,000  Level Denver Center
11:46PM 38.7211 -105.6481 256° West 427 491 36,000  Level Denver Center
11:47PM 38.6925 -105.7961 256° West 426 490 36,000  Level Denver Center
11:48PM 38.6661 -105.9411 257° West 416 479 36,000  Level Denver Center
11:49PM 38.6383 -106.0858 256° West 417 480 36,000  Level Denver Center
11:50PM 38.6125 -106.2231 256° West 415 478 36,000  Level Denver Center
11:51PM 38.5853 -106.3656 256° West 413 475 36,000  Level Denver Center
11:52PM 38.5572 -106.5086 256° West 414 476 36,000  Level Denver Center
11:53PM 38.5289 -106.6525 256° West 414 476 36,000  Level Denver Center
11:54PM 38.5003 -106.7958 256° West 414 476 36,000  Level Denver Center
11:55PM 38.4708 -106.9386 255° West 415 478 36,000  Level Denver Center
11:56PM 38.4339 -107.0783 251° West 411 473 36,000  Level Denver Center
11:57PM 38.3717 -107.2186 241° Southwest 412 474 36,000 -60 Level Denver Center
11:58PM 38.3103 -107.3597 241° Southwest 408 470 35,900  Descending Denver Center
11:59PM 38.2556 -107.4819 240° Southwest 412 474 36,000  Climbing Denver Center
12:00AM 38.2003 -107.6025 240° Southwest 412 474 36,000  Level Denver Center
12:01AM 38.1361 -107.7453 240° Southwest 415 478 36,100  Climbing Denver Center
12:02AM 38.0822 -107.8653 240° Southwest 409 471 36,000 -60 Descending Denver Center
12:03AM 38.0225 -107.9958 240° Southwest 405 466 36,000  Level Denver Center
12:04AM 37.9689 -108.1156 240° Southwest 407 468 36,000  Level Denver Center
12:05AM 37.9239 -108.2114 239° Southwest 403 464 36,000  Level Denver Center
12:06AM 37.8508 -108.3697 240° Southwest 405 466 36,000  Level Denver Center
12:07AM 37.7969 -108.4883 240° Southwest 407 468 36,000  Level Denver Center
12:08AM 37.7328 -108.6267 240° Southwest 408 470 36,000  Level Denver Center
12:09AM 37.6789 -108.7450 240° Southwest 407 468 36,000  Level Denver Center
12:10AM 37.6161 -108.8789 239° Southwest 400 460 36,000  Level Denver Center
12:11AM 37.5611 -108.9933 239° Southwest 400 460 36,000  Level Denver Center
12:13AM 37.5064 -109.1117 240° Southwest 407 468 36,000  Level Denver Center
12:14AM 37.4322 -109.2669 239° Southwest 407 468 36,000  Level Denver Center
12:15AM 37.3767 -109.3836 239° Southwest 408 470 36,000  Level Denver Center
12:16AM 37.3111 -109.5214 239° Southwest 411 473 36,000  Level Denver Center
12:17AM 37.2542 -109.6417 239° Southwest 417 480 36,100  Climbing Denver Center
12:18AM 37.1969 -109.7594 239° Southwest 417 480 36,100 -60 Level Denver Center
12:19AM 37.1322 -109.8967 239° Southwest 412 474 36,000 -60 Descending Denver Center
12:20AM 37.0756 -110.0114 238° Southwest 408 470 36,000  Level Denver Center
12:21AM 37.0089 -110.1494 239° Southwest 414 476 36,000  Level Denver Center
12:22AM 36.9561 -110.2564 238° Southwest 413 475 36,000  Level Denver Center
12:23AM 36.8958 -110.3811 239° Southwest 418 481 36,000  Level Denver Center
12:24AM 36.8358 -110.5033 239° Southwest 415 478 36,000  Level Denver Center
12:25AM 36.7631 -110.6508 238° Southwest 416 479 36,000  Level Denver Center
12:26AM 36.7022 -110.7742 238° Southwest 417 480 36,000  Level Denver Center
12:27AM 36.6428 -110.8978 239° Southwest 417 480 36,000  Level Denver Center
12:28AM 36.5806 -111.0211 238° Southwest 419 482 36,000  Level Denver Center
12:29AM 36.5175 -111.1464 238° Southwest 424 488 36,000  Level Denver Center
12:30AM 36.4544 -111.2708 238° Southwest 425 489 36,000  Level Denver Center
12:31AM 36.3917 -111.3953 238° Southwest 425 489 36,000  Level Denver Center
12:32AM 36.3300 -111.5183 238° Southwest 422 486 36,000  Level Denver Center
12:33AM 36.2678 -111.6419 238° Southwest 422 486 36,000  Level Denver Center
12:35AM 36.1408 -111.8875 237° Southwest 424 488 36,000  Level Denver Center
12:35AM 36.1142 -111.9375 237° Southwest 427 491 36,000  Level Los Angeles Center
12:36AM 36.0483 -112.0683 238° Southwest 427 491 36,000  Level Los Angeles Center
12:37AM 35.9853 -112.1886 237° Southwest 420 483 36,000  Level Los Angeles Center
12:38AM 35.9233 -112.3092 238° Southwest 418 481 36,000  Level Los Angeles Center
12:39AM 35.8600 -112.4311 237° Southwest 424 488 36,000  Level Los Angeles Center
12:40AM 35.7967 -112.5536 238° Southwest 425 489 36,000  Level Los Angeles Center
12:41AM 35.7331 -112.6758 237° Southwest 428 493 36,000  Level Los Angeles Center
12:42AM 35.6567 -112.8189 237° Southwest 425 489 36,000  Level Los Angeles Center
12:43AM 35.5931 -112.9403 237° Southwest 422 486 36,000  Level Los Angeles Center
12:44AM 35.5228 -113.0742 237° Southwest 432 497 36,000  Level Los Angeles Center
12:45AM 35.4578 -113.1956 237° Southwest 427 491 36,000  Level Los Angeles Center
12:47AM 35.4031 -113.2989 237° Southwest 424 488 36,000  Level Los Angeles Center
12:48AM 35.3133 -113.4661 237° Southwest 425 489 36,000  Level Los Angeles Center
12:49AM 35.2486 -113.5872 237° Southwest 428 493 36,000  Level Los Angeles Center
12:50AM 35.1842 -113.7083 237° Southwest 428 493 36,000  Level Los Angeles Center
12:51AM 35.1189 -113.8272 236° Southwest 427 491 36,000  Level Los Angeles Center
12:52AM 35.0397 -113.9731 236° Southwest 430 495 36,000  Level Los Angeles Center
12:53AM 34.9728 -114.0953 236° Southwest 431 496 36,000  Level Los Angeles Center
12:54AM 34.9194 -114.1936 237° Southwest 433 498 36,000  Level Los Angeles Center
12:55AM 34.8256 -114.3644 236° Southwest 433 498 36,000 -180 Level Los Angeles Center
12:56AM 34.7583 -114.4881 237° Southwest 438 504 35,700 -600 Descending Los Angeles Center
12:57AM 34.7031 -114.6136 242° Southwest 426 490 34,800 -1,020 Descending Los Angeles Center
12:58AM 34.6442 -114.7467 242° Southwest 428 493 33,700 -1,080 Descending Los Angeles Center
12:59AM 34.5858 -114.8753 241° Southwest 436 502 32,700 -1,020 Descending Los Angeles Center
01:00AM 34.5272 -115.0053 241° Southwest 438 504 31,700 -960 Descending Los Angeles Center
01:01AM 34.4686 -115.1342 241° Southwest 439 505 30,800 -840 Descending Los Angeles Center
01:02AM 34.4100 -115.2625 241° Southwest 436 502 30,000 -480 Descending Los Angeles Center
01:03AM 34.3517 -115.3903 241° Southwest 436 502 29,900 -540 Descending Los Angeles Center
01:04AM 34.2931 -115.5194 241° Southwest 438 504 29,000 -960 Descending Los Angeles Center
01:05AM 34.2331 -115.6464 240° Southwest 438 504 28,000 -960 Descending Los Angeles Center
01:06AM 34.1731 -115.7761 241° Southwest 441 507 27,100 -1,080 Descending Los Angeles Center
01:07AM 34.1033 -115.9319 242° Southwest 441 507 25,900 -1,140 Descending Los Angeles Center
01:08AM 34.0428 -116.0594 240° Southwest 440 506 24,900 -960 Descending Los Angeles Center
01:09AM 33.9844 -116.1853 241° Southwest 435 501 24,000 -1,320 Descending Los Angeles Center
01:10AM 33.9269 -116.3081 241° Southwest 427 491 22,200 -2,280 Descending Los Angeles Center
01:11AM 33.8756 -116.4281 243° Southwest 414 476 19,400 -2,760 Descending Los Angeles Center
01:12AM 33.8767 -116.5561 271° West 392 451 16,700 -2,100 Descending Los Angeles Center
01:13AM 33.8831 -116.6850 273° West 389 448 15,100 -1,380 Descending Los Angeles Center
01:14AM 33.8886 -116.8144 273° West 388 447 13,900 -660 Descending Los Angeles Center
01:15AM 33.8639 -116.9353 256° West 385 443 13,800 -840 Descending Los Angeles Center
01:16AM 33.8503 -117.0569 262° West 364 419 12,300 -1,680 Descending Los Angeles Center
01:18AM 33.8319 -117.1856 260° West 331 381 10,400 -1,440 Descending Los Angeles Center
01:19AM 33.8203 -117.2786 261° West 287 330 9,400 -1,200 Descending Los Angeles Center
01:20AM 33.8083 -117.3678 261° West 274 315 8,000 -720 Descending Los Angeles Center
01:21AM 33.7967 -117.4569 261° West 272 313 8,000  Level Los Angeles Center
01:22AM 33.7894 -117.5289 263° West 225 259 8,000 -60 Level Los Angeles Center
01:23AM 33.7800 -117.5975 261° West 208 239 7,900 -480 Descending Los Angeles Center
01:23AM 33.7833 -117.6333 276° West 210 242 7,400 -1,560 Descending Southern California TRACON
01:24AM 33.8167 -117.6833 309° West 224 258 5,700 -1,260 Descending Southern California TRACON
01:25AM 33.8667 -117.7167 331° Northwest 182 209 4,900 -1,020 Descending Southern California TRACON
01:26AM 33.8667 -117.7500 270° West 183 211 3,900 -900 Descending Southern California TRACON
01:27AM 33.8333 -117.7667 203° Southwest 167 192 3,300 -720 Descending Southern California TRACON
01:28AM 33.7833 -117.8000 209° Southwest 153 176 2,400 -840 Descending Southern California TRACON
01:29AM 33.7500 -117.8167 203° Southwest 140 161 1,600 -780 Descending Southern California TRACON
01:30AM 33.7167 -117.8333 203° Southwest 138 159 900 -780 Descending Southern California TRACON
01:31AM 33.6833 -117.8667 220° Southwest 136 157 100 -840 Descending Southern California TRACON